sensor_id;sensor_type;location;lat;lon;timestamp;temperature;humidity
2571;DHT22;1295;51.130;6.732;2023-07-08T00:01:54;24.70;99.90
2571;DHT22;1295;51.130;6.732;2023-07-08T00:04:19;24.60;99.90
2571;DHT22;1295;51.130;6.732;2023-07-08T00:06:45;24.60;99.90
2571;DHT22;1295;51.130;6.732;2023-07-08T00:09:10;24.60;99.90
2571;DHT22;1295;51.130;6.732;2023-07-08T00:11:36;24.60;99.90
2571;DHT22;1295;51.130;6.732;2023-07-08T00:14:02;24.60;99.90
2571;DHT22;1295;51.130;6.732;2023-07-08T00:16:28;24.60;99.90
2571;DHT22;1295;51.130;6.732;2023-07-08T00:18:54;24.60;99.90
2571;DHT22;1295;51.130;6.732;2023-07-08T00:21:19;24.60;99.90
2571;DHT22;1295;51.130;6.732;2023-07-08T00:23:46;24.60;99.90
2571;DHT22;1295;51.130;6.732;2023-07-08T00:26:13;24.60;99.90
2571;DHT22;1295;51.130;6.732;2023-07-08T00:28:36;24.60;99.90
2571;DHT22;1295;51.130;6.732;2023-07-08T00:31:02;24.50;99.90
2571;DHT22;1295;51.130;6.732;2023-07-08T00:33:27;24.50;99.90
2571;DHT22;1295;51.130;6.732;2023-07-08T00:35:53;24.50;99.90
2571;DHT22;1295;51.130;6.732;2023-07-08T00:38:25;24.50;99.90
2571;DHT22;1295;51.130;6.732;2023-07-08T00:41:14;24.50;99.90
2571;DHT22;1295;51.130;6.732;2023-07-08T00:43:40;24.50;99.90
2571;DHT22;1295;51.130;6.732;2023-07-08T00:46:16;24.40;99.90
2571;DHT22;1295;51.130;6.732;2023-07-08T00:48:38;24.40;99.90
2571;DHT22;1295;51.130;6.732;2023-07-08T00:51:06;24.40;99.90
2571;DHT22;1295;51.130;6.732;2023-07-08T00:53:32;24.40;99.90
2571;DHT22;1295;51.130;6.732;2023-07-08T00:56:00;24.40;99.90
2571;DHT22;1295;51.130;6.732;2023-07-08T00:58:25;24.40;99.90
2571;DHT22;1295;51.130;6.732;2023-07-08T01:00:50;24.30;99.90
2571;DHT22;1295;51.130;6.732;2023-07-08T01:03:16;24.40;99.90
2571;DHT22;1295;51.130;6.732;2023-07-08T01:05:42;24.30;99.90
2571;DHT22;1295;51.130;6.732;2023-07-08T01:08:07;24.30;99.90
2571;DHT22;1295;51.130;6.732;2023-07-08T01:10:37;24.30;99.90
2571;DHT22;1295;51.130;6.732;2023-07-08T01:13:00;24.30;99.90
2571;DHT22;1295;51.130;6.732;2023-07-08T01:15:26;24.30;99.90
2571;DHT22;1295;51.130;6.732;2023-07-08T01:17:51;24.30;99.90
2571;DHT22;1295;51.130;6.732;2023-07-08T01:20:17;24.30;99.90
2571;DHT22;1295;51.130;6.732;2023-07-08T01:22:53;24.20;99.90
2571;DHT22;1295;51.130;6.732;2023-07-08T01:25:18;24.20;99.90
2571;DHT22;1295;51.130;6.732;2023-07-08T01:27:45;24.20;99.90
2571;DHT22;1295;51.130;6.732;2023-07-08T01:30:10;24.20;99.90
2571;DHT22;1295;51.130;6.732;2023-07-08T01:32:36;24.20;99.90
2571;DHT22;1295;51.130;6.732;2023-07-08T01:35:01;24.20;99.90
2571;DHT22;1295;51.130;6.732;2023-07-08T01:37:29;24.20;99.90
2571;DHT22;1295;51.130;6.732;2023-07-08T01:39:54;24.20;99.90
2571;DHT22;1295;51.130;6.732;2023-07-08T01:42:20;24.20;99.90
2571;DHT22;1295;51.130;6.732;2023-07-08T01:44:46;24.10;99.90
2571;DHT22;1295;51.130;6.732;2023-07-08T01:47:19;24.10;99.90
2571;DHT22;1295;51.130;6.732;2023-07-08T01:49:43;24.10;99.90
2571;DHT22;1295;51.130;6.732;2023-07-08T01:52:09;24.10;99.90
2571;DHT22;1295;51.130;6.732;2023-07-08T01:54:35;24.10;99.90
2571;DHT22;1295;51.130;6.732;2023-07-08T01:57:00;24.10;99.90
2571;DHT22;1295;51.130;6.732;2023-07-08T01:59:26;24.00;99.90
2571;DHT22;1295;51.130;6.732;2023-07-08T02:01:52;24.00;99.90
2571;DHT22;1295;51.130;6.732;2023-07-08T02:04:18;24.00;99.90
2571;DHT22;1295;51.130;6.732;2023-07-08T02:06:50;24.00;99.90
2571;DHT22;1295;51.130;6.732;2023-07-08T02:09:10;24.00;99.90
2571;DHT22;1295;51.130;6.732;2023-07-08T02:11:36;24.00;99.90
2571;DHT22;1295;51.130;6.732;2023-07-08T02:14:01;24.00;99.90
2571;DHT22;1295;51.130;6.732;2023-07-08T02:16:27;24.00;99.90
2571;DHT22;1295;51.130;6.732;2023-07-08T02:18:53;24.00;99.90
2571;DHT22;1295;51.130;6.732;2023-07-08T02:21:18;24.00;99.90
2571;DHT22;1295;51.130;6.732;2023-07-08T02:23:45;24.00;99.90
2571;DHT22;1295;51.130;6.732;2023-07-08T02:26:09;24.00;99.90
2571;DHT22;1295;51.130;6.732;2023-07-08T02:28:35;23.90;99.90
2571;DHT22;1295;51.130;6.732;2023-07-08T02:31:02;23.90;99.90
2571;DHT22;1295;51.130;6.732;2023-07-08T02:33:27;23.90;99.90
2571;DHT22;1295;51.130;6.732;2023-07-08T02:35:53;23.90;99.90
2571;DHT22;1295;51.130;6.732;2023-07-08T02:38:19;23.90;99.90
2571;DHT22;1295;51.130;6.732;2023-07-08T02:40:45;23.90;99.90
2571;DHT22;1295;51.130;6.732;2023-07-08T02:43:12;23.80;99.90
2571;DHT22;1295;51.130;6.732;2023-07-08T02:45:37;23.80;99.90
2571;DHT22;1295;51.130;6.732;2023-07-08T02:48:03;23.80;99.90
2571;DHT22;1295;51.130;6.732;2023-07-08T02:50:29;23.80;99.90
2571;DHT22;1295;51.130;6.732;2023-07-08T02:52:54;23.80;99.90
2571;DHT22;1295;51.130;6.732;2023-07-08T02:55:21;23.80;99.90
2571;DHT22;1295;51.130;6.732;2023-07-08T02:57:46;23.80;99.90
2571;DHT22;1295;51.130;6.732;2023-07-08T03:00:13;23.80;99.90
2571;DHT22;1295;51.130;6.732;2023-07-08T03:02:39;23.70;99.90
2571;DHT22;1295;51.130;6.732;2023-07-08T03:05:06;23.70;99.90
2571;DHT22;1295;51.130;6.732;2023-07-08T03:07:32;23.70;99.90
2571;DHT22;1295;51.130;6.732;2023-07-08T03:09:59;23.70;99.90
2571;DHT22;1295;51.130;6.732;2023-07-08T03:12:24;23.70;99.90
2571;DHT22;1295;51.130;6.732;2023-07-08T03:14:51;23.70;99.90
2571;DHT22;1295;51.130;6.732;2023-07-08T03:17:16;23.60;99.90
2571;DHT22;1295;51.130;6.732;2023-07-08T03:19:42;23.70;99.90
2571;DHT22;1295;51.130;6.732;2023-07-08T03:22:08;23.60;99.90
2571;DHT22;1295;51.130;6.732;2023-07-08T03:24:34;23.60;99.90
2571;DHT22;1295;51.130;6.732;2023-07-08T03:26:59;23.60;99.90
2571;DHT22;1295;51.130;6.732;2023-07-08T03:29:25;23.60;99.90
2571;DHT22;1295;51.130;6.732;2023-07-08T03:31:51;23.60;99.90
2571;DHT22;1295;51.130;6.732;2023-07-08T03:34:16;23.60;99.90
2571;DHT22;1295;51.130;6.732;2023-07-08T03:36:44;23.60;99.90
2571;DHT22;1295;51.130;6.732;2023-07-08T03:39:09;23.60;99.90
2571;DHT22;1295;51.130;6.732;2023-07-08T03:41:34;23.60;99.90
2571;DHT22;1295;51.130;6.732;2023-07-08T03:44:00;23.60;99.90
2571;DHT22;1295;51.130;6.732;2023-07-08T03:46:25;23.50;99.90
2571;DHT22;1295;51.130;6.732;2023-07-08T03:48:51;23.50;99.90
2571;DHT22;1295;51.130;6.732;2023-07-08T03:51:20;23.50;99.90
2571;DHT22;1295;51.130;6.732;2023-07-08T03:53:47;23.50;99.90
2571;DHT22;1295;51.130;6.732;2023-07-08T03:56:14;23.50;99.90
2571;DHT22;1295;51.130;6.732;2023-07-08T03:58:39;23.50;99.90
2571;DHT22;1295;51.130;6.732;2023-07-08T04:01:08;23.50;99.90
2571;DHT22;1295;51.130;6.732;2023-07-08T04:03:31;23.50;99.90
2571;DHT22;1295;51.130;6.732;2023-07-08T04:05:56;23.40;99.90
2571;DHT22;1295;51.130;6.732;2023-07-08T04:08:22;23.40;99.90
2571;DHT22;1295;51.130;6.732;2023-07-08T04:10:47;23.40;99.90
2571;DHT22;1295;51.130;6.732;2023-07-08T04:13:13;23.40;99.90
2571;DHT22;1295;51.130;6.732;2023-07-08T04:15:39;23.40;99.90
2571;DHT22;1295;51.130;6.732;2023-07-08T04:18:04;23.40;99.90
2571;DHT22;1295;51.130;6.732;2023-07-08T04:20:30;23.40;99.90
2571;DHT22;1295;51.130;6.732;2023-07-08T04:22:55;23.40;99.90
2571;DHT22;1295;51.130;6.732;2023-07-08T04:25:22;23.40;99.90
2571;DHT22;1295;51.130;6.732;2023-07-08T04:27:47;23.30;99.90
2571;DHT22;1295;51.130;6.732;2023-07-08T04:30:22;23.30;99.90
2571;DHT22;1295;51.130;6.732;2023-07-08T04:32:46;23.30;99.90
2571;DHT22;1295;51.130;6.732;2023-07-08T04:35:11;23.30;99.90
2571;DHT22;1295;51.130;6.732;2023-07-08T04:37:38;23.30;99.90
2571;DHT22;1295;51.130;6.732;2023-07-08T04:40:04;23.30;99.90
2571;DHT22;1295;51.130;6.732;2023-07-08T04:42:31;23.30;99.90
2571;DHT22;1295;51.130;6.732;2023-07-08T04:44:57;23.30;99.90
2571;DHT22;1295;51.130;6.732;2023-07-08T04:47:22;23.30;99.90
2571;DHT22;1295;51.130;6.732;2023-07-08T04:49:49;23.30;99.90
2571;DHT22;1295;51.130;6.732;2023-07-08T04:52:14;23.20;99.90
2571;DHT22;1295;51.130;6.732;2023-07-08T04:54:40;23.30;99.90
2571;DHT22;1295;51.130;6.732;2023-07-08T04:57:06;23.20;99.90
2571;DHT22;1295;51.130;6.732;2023-07-08T04:59:31;23.20;99.90
2571;DHT22;1295;51.130;6.732;2023-07-08T05:01:58;23.20;99.90
2571;DHT22;1295;51.130;6.732;2023-07-08T05:04:23;23.20;99.90
2571;DHT22;1295;51.130;6.732;2023-07-08T05:06:49;23.20;99.90
2571;DHT22;1295;51.130;6.732;2023-07-08T05:09:15;23.20;99.90
2571;DHT22;1295;51.130;6.732;2023-07-08T05:11:40;23.20;99.90
2571;DHT22;1295;51.130;6.732;2023-07-08T05:14:07;23.20;99.90
2571;DHT22;1295;51.130;6.732;2023-07-08T05:16:33;23.20;99.90
2571;DHT22;1295;51.130;6.732;2023-07-08T05:18:58;23.30;99.90
2571;DHT22;1295;51.130;6.732;2023-07-08T05:21:31;23.30;99.90
2571;DHT22;1295;51.130;6.732;2023-07-08T05:23:56;23.30;99.90
2571;DHT22;1295;51.130;6.732;2023-07-08T05:26:22;23.30;99.90
2571;DHT22;1295;51.130;6.732;2023-07-08T05:28:47;23.30;99.90
2571;DHT22;1295;51.130;6.732;2023-07-08T05:31:14;23.20;99.90
2571;DHT22;1295;51.130;6.732;2023-07-08T05:33:40;23.20;99.90
2571;DHT22;1295;51.130;6.732;2023-07-08T05:36:06;23.20;99.90
2571;DHT22;1295;51.130;6.732;2023-07-08T05:38:31;23.20;99.90
2571;DHT22;1295;51.130;6.732;2023-07-08T05:40:57;23.20;99.90
2571;DHT22;1295;51.130;6.732;2023-07-08T05:43:24;23.20;99.90
2571;DHT22;1295;51.130;6.732;2023-07-08T05:45:49;23.20;99.90
2571;DHT22;1295;51.130;6.732;2023-07-08T05:48:15;23.20;99.90
2571;DHT22;1295;51.130;6.732;2023-07-08T05:50:41;22.60;99.90
2571;DHT22;1295;51.130;6.732;2023-07-08T05:53:09;22.60;99.90
2571;DHT22;1295;51.130;6.732;2023-07-08T05:55:35;22.70;99.90
2571;DHT22;1295;51.130;6.732;2023-07-08T05:58:01;22.60;99.90
2571;DHT22;1295;51.130;6.732;2023-07-08T06:00:26;22.80;99.90
2571;DHT22;1295;51.130;6.732;2023-07-08T06:02:52;23.10;99.90
2571;DHT22;1295;51.130;6.732;2023-07-08T06:05:18;23.20;99.90
2571;DHT22;1295;51.130;6.732;2023-07-08T06:07:43;23.00;99.90
2571;DHT22;1295;51.130;6.732;2023-07-08T06:10:09;23.10;99.90
2571;DHT22;1295;51.130;6.732;2023-07-08T06:12:35;23.20;99.90
2571;DHT22;1295;51.130;6.732;2023-07-08T06:15:00;23.10;99.90
2571;DHT22;1295;51.130;6.732;2023-07-08T06:17:27;23.20;99.90
2571;DHT22;1295;51.130;6.732;2023-07-08T06:19:52;23.20;99.90
2571;DHT22;1295;51.130;6.732;2023-07-08T06:22:18;23.30;99.90
2571;DHT22;1295;51.130;6.732;2023-07-08T06:24:43;23.20;99.90
2571;DHT22;1295;51.130;6.732;2023-07-08T06:27:09;23.20;99.90
2571;DHT22;1295;51.130;6.732;2023-07-08T06:29:35;23.20;99.90
2571;DHT22;1295;51.130;6.732;2023-07-08T06:32:01;23.20;99.90
2571;DHT22;1295;51.130;6.732;2023-07-08T06:34:26;23.20;99.90
2571;DHT22;1295;51.130;6.732;2023-07-08T06:36:52;23.10;99.90
2571;DHT22;1295;51.130;6.732;2023-07-08T06:39:18;23.10;99.90
2571;DHT22;1295;51.130;6.732;2023-07-08T06:41:44;23.10;99.90
2571;DHT22;1295;51.130;6.732;2023-07-08T06:44:09;23.20;99.90
2571;DHT22;1295;51.130;6.732;2023-07-08T06:46:35;23.20;99.90
2571;DHT22;1295;51.130;6.732;2023-07-08T06:49:01;23.20;99.90
2571;DHT22;1295;51.130;6.732;2023-07-08T06:51:27;23.30;99.90
2571;DHT22;1295;51.130;6.732;2023-07-08T06:53:53;23.20;99.90
2571;DHT22;1295;51.130;6.732;2023-07-08T06:56:18;23.30;99.90
2571;DHT22;1295;51.130;6.732;2023-07-08T06:58:44;23.30;99.90
2571;DHT22;1295;51.130;6.732;2023-07-08T07:01:09;23.40;99.90
2571;DHT22;1295;51.130;6.732;2023-07-08T07:03:35;23.40;99.90
2571;DHT22;1295;51.130;6.732;2023-07-08T07:06:02;23.50;99.90
2571;DHT22;1295;51.130;6.732;2023-07-08T07:08:28;23.50;99.90
2571;DHT22;1295;51.130;6.732;2023-07-08T07:10:54;23.40;99.90
2571;DHT22;1295;51.130;6.732;2023-07-08T07:13:19;23.30;99.90
2571;DHT22;1295;51.130;6.732;2023-07-08T07:15:45;23.40;99.90
2571;DHT22;1295;51.130;6.732;2023-07-08T07:18:10;23.60;99.90
2571;DHT22;1295;51.130;6.732;2023-07-08T07:20:36;23.50;99.90
2571;DHT22;1295;51.130;6.732;2023-07-08T07:23:02;23.50;99.90
2571;DHT22;1295;51.130;6.732;2023-07-08T07:25:27;23.50;99.90
2571;DHT22;1295;51.130;6.732;2023-07-08T07:27:54;23.70;99.90
2571;DHT22;1295;51.130;6.732;2023-07-08T07:30:19;23.60;99.90
2571;DHT22;1295;51.130;6.732;2023-07-08T07:32:45;23.70;99.90
2571;DHT22;1295;51.130;6.732;2023-07-08T07:35:11;23.80;99.90
2571;DHT22;1295;51.130;6.732;2023-07-08T07:37:36;24.10;99.90
2571;DHT22;1295;51.130;6.732;2023-07-08T07:40:02;24.10;99.90
2571;DHT22;1295;51.130;6.732;2023-07-08T07:42:28;24.20;99.90
2571;DHT22;1295;51.130;6.732;2023-07-08T07:44:54;24.10;99.90
2571;DHT22;1295;51.130;6.732;2023-07-08T07:47:20;24.00;99.90
2571;DHT22;1295;51.130;6.732;2023-07-08T07:49:45;24.20;99.90
2571;DHT22;1295;51.130;6.732;2023-07-08T07:52:12;24.50;99.90
2571;DHT22;1295;51.130;6.732;2023-07-08T07:54:38;24.40;99.90
2571;DHT22;1295;51.130;6.732;2023-07-08T07:57:04;24.10;99.90
2571;DHT22;1295;51.130;6.732;2023-07-08T07:59:29;24.20;99.90
2571;DHT22;1295;51.130;6.732;2023-07-08T08:01:55;24.40;99.90
2571;DHT22;1295;51.130;6.732;2023-07-08T08:04:21;24.20;99.90
2571;DHT22;1295;51.130;6.732;2023-07-08T08:06:46;24.40;99.90
2571;DHT22;1295;51.130;6.732;2023-07-08T08:09:12;24.70;99.90
2571;DHT22;1295;51.130;6.732;2023-07-08T08:11:38;24.80;99.90
2571;DHT22;1295;51.130;6.732;2023-07-08T08:14:03;24.80;99.90
2571;DHT22;1295;51.130;6.732;2023-07-08T08:16:29;24.80;99.90
2571;DHT22;1295;51.130;6.732;2023-07-08T08:18:54;24.80;99.90
2571;DHT22;1295;51.130;6.732;2023-07-08T08:21:20;24.90;99.90
2571;DHT22;1295;51.130;6.732;2023-07-08T08:23:47;24.70;99.90
2571;DHT22;1295;51.130;6.732;2023-07-08T08:26:13;24.70;99.90
2571;DHT22;1295;51.130;6.732;2023-07-08T08:28:38;24.70;99.90
2571;DHT22;1295;51.130;6.732;2023-07-08T08:31:03;24.60;99.90
2571;DHT22;1295;51.130;6.732;2023-07-08T08:33:29;25.20;99.90
2571;DHT22;1295;51.130;6.732;2023-07-08T08:35:55;25.50;99.90
2571;DHT22;1295;51.130;6.732;2023-07-08T08:38:21;25.50;99.90
2571;DHT22;1295;51.130;6.732;2023-07-08T08:40:47;25.00;99.90
2571;DHT22;1295;51.130;6.732;2023-07-08T08:43:13;24.90;99.90
2571;DHT22;1295;51.130;6.732;2023-07-08T08:45:41;25.10;99.90
2571;DHT22;1295;51.130;6.732;2023-07-08T08:48:06;24.60;99.90
2571;DHT22;1295;51.130;6.732;2023-07-08T08:50:33;25.70;99.90
2571;DHT22;1295;51.130;6.732;2023-07-08T08:52:58;25.20;99.90
2571;DHT22;1295;51.130;6.732;2023-07-08T08:55:23;25.00;99.90
2571;DHT22;1295;51.130;6.732;2023-07-08T08:58:01;25.40;99.90
2571;DHT22;1295;51.130;6.732;2023-07-08T09:00:29;24.90;99.90
2571;DHT22;1295;51.130;6.732;2023-07-08T09:03:01;25.60;99.90
2571;DHT22;1295;51.130;6.732;2023-07-08T09:05:24;25.80;99.90
2571;DHT22;1295;51.130;6.732;2023-07-08T09:08:04;25.50;99.90
2571;DHT22;1295;51.130;6.732;2023-07-08T09:10:45;25.50;99.90
2571;DHT22;1295;51.130;6.732;2023-07-08T09:13:29;25.40;99.90
2571;DHT22;1295;51.130;6.732;2023-07-08T09:15:54;25.70;99.90
2571;DHT22;1295;51.130;6.732;2023-07-08T09:18:21;25.60;99.90
2571;DHT22;1295;51.130;6.732;2023-07-08T09:20:45;26.40;99.90
2571;DHT22;1295;51.130;6.732;2023-07-08T09:23:20;26.00;99.90
2571;DHT22;1295;51.130;6.732;2023-07-08T09:25:46;27.00;99.90
2571;DHT22;1295;51.130;6.732;2023-07-08T09:28:12;27.00;99.90
2571;DHT22;1295;51.130;6.732;2023-07-08T09:30:36;26.30;99.90
2571;DHT22;1295;51.130;6.732;2023-07-08T09:33:03;27.10;99.90
2571;DHT22;1295;51.130;6.732;2023-07-08T09:35:28;26.30;99.90
2571;DHT22;1295;51.130;6.732;2023-07-08T09:37:53;26.70;99.90
2571;DHT22;1295;51.130;6.732;2023-07-08T09:40:20;26.70;99.90
2571;DHT22;1295;51.130;6.732;2023-07-08T09:42:46;26.00;99.90
2571;DHT22;1295;51.130;6.732;2023-07-08T09:45:12;26.00;99.90
2571;DHT22;1295;51.130;6.732;2023-07-08T09:47:36;26.90;99.90
2571;DHT22;1295;51.130;6.732;2023-07-08T09:50:04;26.30;99.90
2571;DHT22;1295;51.130;6.732;2023-07-08T09:52:29;26.90;99.90
2571;DHT22;1295;51.130;6.732;2023-07-08T09:54:53;27.40;99.90
2571;DHT22;1295;51.130;6.732;2023-07-08T09:57:25;27.20;99.90
2571;DHT22;1295;51.130;6.732;2023-07-08T09:59:48;28.80;99.90
2571;DHT22;1295;51.130;6.732;2023-07-08T10:02:25;26.80;99.90
2571;DHT22;1295;51.130;6.732;2023-07-08T10:04:45;26.80;99.90
2571;DHT22;1295;51.130;6.732;2023-07-08T10:07:14;27.20;99.90
2571;DHT22;1295;51.130;6.732;2023-07-08T10:09:37;27.20;99.90
2571;DHT22;1295;51.130;6.732;2023-07-08T10:12:03;27.80;99.90
2571;DHT22;1295;51.130;6.732;2023-07-08T10:14:36;26.80;99.90
2571;DHT22;1295;51.130;6.732;2023-07-08T10:17:00;26.50;99.90
2571;DHT22;1295;51.130;6.732;2023-07-08T10:19:26;27.50;99.90
2571;DHT22;1295;51.130;6.732;2023-07-08T10:22:08;27.90;99.90
2571;DHT22;1295;51.130;6.732;2023-07-08T10:24:35;28.20;99.90
2571;DHT22;1295;51.130;6.732;2023-07-08T10:27:00;29.80;99.90
2571;DHT22;1295;51.130;6.732;2023-07-08T10:29:29;29.50;99.90
2571;DHT22;1295;51.130;6.732;2023-07-08T10:31:54;29.00;99.90
2571;DHT22;1295;51.130;6.732;2023-07-08T10:34:32;28.40;99.90
2571;DHT22;1295;51.130;6.732;2023-07-08T10:37:19;28.30;99.90
2571;DHT22;1295;51.130;6.732;2023-07-08T10:40:02;27.90;99.90
2571;DHT22;1295;51.130;6.732;2023-07-08T10:42:48;29.60;99.60
2571;DHT22;1295;51.130;6.732;2023-07-08T10:45:21;27.60;99.90
2571;DHT22;1295;51.130;6.732;2023-07-08T10:47:57;28.70;99.90
2571;DHT22;1295;51.130;6.732;2023-07-08T10:50:30;28.70;99.90
2571;DHT22;1295;51.130;6.732;2023-07-08T10:53:03;28.50;99.90
2571;DHT22;1295;51.130;6.732;2023-07-08T10:55:32;29.90;99.90
2571;DHT22;1295;51.130;6.732;2023-07-08T10:58:07;29.00;99.90
2571;DHT22;1295;51.130;6.732;2023-07-08T11:00:40;28.90;99.90
2571;DHT22;1295;51.130;6.732;2023-07-08T11:03:15;27.60;99.90
2571;DHT22;1295;51.130;6.732;2023-07-08T11:05:42;26.50;99.90
2571;DHT22;1295;51.130;6.732;2023-07-08T11:08:18;28.90;99.90
2571;DHT22;1295;51.130;6.732;2023-07-08T11:10:58;30.10;99.90
2571;DHT22;1295;51.130;6.732;2023-07-08T11:13:23;30.00;99.90
2571;DHT22;1295;51.130;6.732;2023-07-08T11:18:26;30.00;99.90
2571;DHT22;1295;51.130;6.732;2023-07-08T11:21:07;30.70;99.90
2571;DHT22;1295;51.130;6.732;2023-07-08T11:23:36;27.40;99.90
2571;DHT22;1295;51.130;6.732;2023-07-08T11:26:14;27.30;99.90
2571;DHT22;1295;51.130;6.732;2023-07-08T11:28:38;28.00;99.90
2571;DHT22;1295;51.130;6.732;2023-07-08T11:31:03;28.10;99.90
2571;DHT22;1295;51.130;6.732;2023-07-08T11:33:29;28.20;99.90
2571;DHT22;1295;51.130;6.732;2023-07-08T11:35:55;27.40;99.90
2571;DHT22;1295;51.130;6.732;2023-07-08T11:38:21;26.70;99.90
2571;DHT22;1295;51.130;6.732;2023-07-08T11:41:01;30.30;99.40
2571;DHT22;1295;51.130;6.732;2023-07-08T11:43:28;29.10;99.10
2571;DHT22;1295;51.130;6.732;2023-07-08T11:45:55;29.10;99.10
2571;DHT22;1295;51.130;6.732;2023-07-08T11:48:22;28.40;99.90
2571;DHT22;1295;51.130;6.732;2023-07-08T11:50:46;28.40;99.90
2571;DHT22;1295;51.130;6.732;2023-07-08T11:53:14;29.20;99.90
2571;DHT22;1295;51.130;6.732;2023-07-08T11:55:47;30.20;98.50
2571;DHT22;1295;51.130;6.732;2023-07-08T11:58:21;29.90;99.80
2571;DHT22;1295;51.130;6.732;2023-07-08T12:00:50;29.50;99.90
2571;DHT22;1295;51.130;6.732;2023-07-08T12:03:18;29.80;98.60
2571;DHT22;1295;51.130;6.732;2023-07-08T12:05:42;30.40;99.90
2571;DHT22;1295;51.130;6.732;2023-07-08T12:08:12;28.80;99.60
2571;DHT22;1295;51.130;6.732;2023-07-08T12:10:38;29.50;99.00
2571;DHT22;1295;51.130;6.732;2023-07-08T12:13:02;30.80;97.90
2571;DHT22;1295;51.130;6.732;2023-07-08T12:15:32;30.20;99.10
2571;DHT22;1295;51.130;6.732;2023-07-08T12:18:04;31.20;97.50
2571;DHT22;1295;51.130;6.732;2023-07-08T12:20:29;29.40;99.10
2571;DHT22;1295;51.130;6.732;2023-07-08T12:22:53;28.10;99.60
2571;DHT22;1295;51.130;6.732;2023-07-08T12:25:20;29.80;98.60
2571;DHT22;1295;51.130;6.732;2023-07-08T12:27:44;28.50;99.60
2571;DHT22;1295;51.130;6.732;2023-07-08T12:30:11;29.00;99.40
2571;DHT22;1295;51.130;6.732;2023-07-08T12:32:38;30.20;95.30
2571;DHT22;1295;51.130;6.732;2023-07-08T12:35:04;30.10;95.30
2571;DHT22;1295;51.130;6.732;2023-07-08T12:37:30;30.70;97.20
2571;DHT22;1295;51.130;6.732;2023-07-08T12:39:55;30.60;97.10
2571;DHT22;1295;51.130;6.732;2023-07-08T12:42:21;29.00;98.30
2571;DHT22;1295;51.130;6.732;2023-07-08T12:44:46;28.00;99.80
2571;DHT22;1295;51.130;6.732;2023-07-08T12:47:12;28.30;99.90
2571;DHT22;1295;51.130;6.732;2023-07-08T12:49:38;29.00;99.90
2571;DHT22;1295;51.130;6.732;2023-07-08T12:52:03;31.10;96.30
2571;DHT22;1295;51.130;6.732;2023-07-08T12:54:30;30.70;97.70
2571;DHT22;1295;51.130;6.732;2023-07-08T12:56:56;30.70;97.50
2571;DHT22;1295;51.130;6.732;2023-07-08T12:59:22;31.80;96.90
2571;DHT22;1295;51.130;6.732;2023-07-08T13:01:47;32.20;96.00
2571;DHT22;1295;51.130;6.732;2023-07-08T13:04:12;31.30;97.70
2571;DHT22;1295;51.130;6.732;2023-07-08T13:06:38;28.50;98.60
2571;DHT22;1295;51.130;6.732;2023-07-08T13:09:14;30.20;96.10
2571;DHT22;1295;51.130;6.732;2023-07-08T13:11:35;31.70;95.90
2571;DHT22;1295;51.130;6.732;2023-07-08T13:14:01;31.60;95.60
2571;DHT22;1295;51.130;6.732;2023-07-08T13:16:29;32.20;94.10
2571;DHT22;1295;51.130;6.732;2023-07-08T13:18:54;31.10;95.60
2571;DHT22;1295;51.130;6.732;2023-07-08T13:21:19;29.80;94.30
2571;DHT22;1295;51.130;6.732;2023-07-08T13:23:46;30.90;95.90
2571;DHT22;1295;51.130;6.732;2023-07-08T13:26:13;30.90;95.80
2571;DHT22;1295;51.130;6.732;2023-07-08T13:28:38;30.30;96.50
2571;DHT22;1295;51.130;6.732;2023-07-08T13:31:13;28.30;98.10
2571;DHT22;1295;51.130;6.732;2023-07-08T13:33:37;29.10;97.60
2571;DHT22;1295;51.130;6.732;2023-07-08T13:36:03;31.60;94.80
2571;DHT22;1295;51.130;6.732;2023-07-08T13:38:32;31.30;96.10
2571;DHT22;1295;51.130;6.732;2023-07-08T13:41:00;28.90;97.60
2571;DHT22;1295;51.130;6.732;2023-07-08T13:43:24;28.80;97.50
2571;DHT22;1295;51.130;6.732;2023-07-08T13:45:49;28.60;98.40
2571;DHT22;1295;51.130;6.732;2023-07-08T13:48:21;31.00;96.10
2571;DHT22;1295;51.130;6.732;2023-07-08T13:50:46;31.00;96.70
2571;DHT22;1295;51.130;6.732;2023-07-08T13:53:17;31.20;96.20
2571;DHT22;1295;51.130;6.732;2023-07-08T13:55:42;29.50;97.00
2571;DHT22;1295;51.130;6.732;2023-07-08T13:58:13;30.80;96.90
2571;DHT22;1295;51.130;6.732;2023-07-08T14:00:34;30.80;96.80
2571;DHT22;1295;51.130;6.732;2023-07-08T14:02:59;30.50;96.20
2571;DHT22;1295;51.130;6.732;2023-07-08T14:05:25;31.10;98.30
2571;DHT22;1295;51.130;6.732;2023-07-08T14:07:51;31.10;95.90
2571;DHT22;1295;51.130;6.732;2023-07-08T14:10:16;33.00;94.20
2571;DHT22;1295;51.130;6.732;2023-07-08T14:12:42;32.60;94.50
2571;DHT22;1295;51.130;6.732;2023-07-08T14:15:09;30.00;97.00
2571;DHT22;1295;51.130;6.732;2023-07-08T14:17:35;29.30;97.60
2571;DHT22;1295;51.130;6.732;2023-07-08T14:20:01;29.20;97.30
2571;DHT22;1295;51.130;6.732;2023-07-08T14:22:28;29.80;97.20
2571;DHT22;1295;51.130;6.732;2023-07-08T14:24:53;31.80;94.90
2571;DHT22;1295;51.130;6.732;2023-07-08T14:27:19;31.80;94.90
2571;DHT22;1295;51.130;6.732;2023-07-08T14:29:47;29.90;96.80
2571;DHT22;1295;51.130;6.732;2023-07-08T14:32:20;30.00;97.90
2571;DHT22;1295;51.130;6.732;2023-07-08T14:34:55;29.70;97.40
2571;DHT22;1295;51.130;6.732;2023-07-08T14:37:21;29.40;99.10
2571;DHT22;1295;51.130;6.732;2023-07-08T14:39:47;31.60;93.70
2571;DHT22;1295;51.130;6.732;2023-07-08T14:42:13;32.50;94.70
2571;DHT22;1295;51.130;6.732;2023-07-08T14:44:38;32.60;95.70
2571;DHT22;1295;51.130;6.732;2023-07-08T14:47:07;30.90;95.60
2571;DHT22;1295;51.130;6.732;2023-07-08T14:49:30;29.60;97.30
2571;DHT22;1295;51.130;6.732;2023-07-08T14:51:56;30.00;97.00
2571;DHT22;1295;51.130;6.732;2023-07-08T14:54:22;29.90;96.90
2571;DHT22;1295;51.130;6.732;2023-07-08T14:56:48;29.50;99.90
2571;DHT22;1295;51.130;6.732;2023-07-08T14:59:17;32.30;93.30
2571;DHT22;1295;51.130;6.732;2023-07-08T15:01:41;32.40;93.20
2571;DHT22;1295;51.130;6.732;2023-07-08T15:04:12;32.30;94.10
2571;DHT22;1295;51.130;6.732;2023-07-08T15:06:37;31.30;95.70
2571;DHT22;1295;51.130;6.732;2023-07-08T15:09:02;30.70;96.30
2571;DHT22;1295;51.130;6.732;2023-07-08T15:11:28;30.20;99.80
2571;DHT22;1295;51.130;6.732;2023-07-08T15:13:54;30.80;96.70
2571;DHT22;1295;51.130;6.732;2023-07-08T15:16:19;31.90;95.60
2571;DHT22;1295;51.130;6.732;2023-07-08T15:18:45;30.90;96.20
2571;DHT22;1295;51.130;6.732;2023-07-08T15:21:12;30.90;97.00
2571;DHT22;1295;51.130;6.732;2023-07-08T15:23:37;31.10;96.50
2571;DHT22;1295;51.130;6.732;2023-07-08T15:26:03;30.30;97.20
2571;DHT22;1295;51.130;6.732;2023-07-08T15:28:35;30.60;97.20
2571;DHT22;1295;51.130;6.732;2023-07-08T15:30:58;32.20;94.80
2571;DHT22;1295;51.130;6.732;2023-07-08T15:33:24;31.90;97.10
2571;DHT22;1295;51.130;6.732;2023-07-08T15:35:51;32.00;95.90
2571;DHT22;1295;51.130;6.732;2023-07-08T15:38:16;31.90;95.90
2571;DHT22;1295;51.130;6.732;2023-07-08T15:40:42;33.00;94.60
2571;DHT22;1295;51.130;6.732;2023-07-08T15:43:09;33.50;94.00
2571;DHT22;1295;51.130;6.732;2023-07-08T15:45:34;33.00;94.60
2571;DHT22;1295;51.130;6.732;2023-07-08T15:48:00;32.70;93.90
2571;DHT22;1295;51.130;6.732;2023-07-08T15:50:26;33.00;94.90
2571;DHT22;1295;51.130;6.732;2023-07-08T15:52:51;33.30;93.70
2571;DHT22;1295;51.130;6.732;2023-07-08T15:55:21;33.60;91.10
2571;DHT22;1295;51.130;6.732;2023-07-08T15:57:48;33.60;92.40
2571;DHT22;1295;51.130;6.732;2023-07-08T16:00:15;33.30;92.00
2571;DHT22;1295;51.130;6.732;2023-07-08T16:02:40;33.30;92.10